Time;durP1;ratioP1;P1;durP2;ratioP2;P2;SDS_P1;SDS_P2;PMS_P1;PMS_P2;Temp;Humidity;BMP_temperature;BMP_pressure;BME280_temperature;BME280_humidity;BME280_pressure;Samples;Min_cycle;Max_cycle;Signal;HPM_P1;HPM_P2
2023/08/05 00:01:39;;;;;;;1.60;1.20;;;16.90;99.90;;;;;;4964395;28;20092;-82
2023/08/05 00:04:04;;;;;;;1.20;1.00;;;16.90;99.90;;;;;;4932223;28;20042;-83
2023/08/05 00:06:30;;;;;;;1.92;1.10;;;16.80;99.90;;;;;;4942773;28;20050;-82
2023/08/05 00:08:56;;;;;;;1.70;1.20;;;16.80;99.90;;;;;;4951410;28;20081;-83
2023/08/05 00:11:21;;;;;;;1.40;1.10;;;16.80;99.90;;;;;;4959646;28;20312;-82
2023/08/05 00:13:47;;;;;;;1.10;1.00;;;16.80;99.90;;;;;;4955207;28;20022;-82
2023/08/05 00:16:14;;;;;;;3.67;0.93;;;16.80;99.90;;;;;;4949156;28;20026;-83
2023/08/05 00:18:40;;;;;;;1.43;1.10;;;16.70;99.90;;;;;;4952643;28;20034;-82
2023/08/05 00:21:05;;;;;;;1.60;1.10;;;16.70;99.90;;;;;;4944266;28;20057;-83
2023/08/05 00:23:31;;;;;;;3.15;1.10;;;16.60;99.90;;;;;;4962376;28;20037;-82
2023/08/05 00:25:57;;;;;;;1.70;1.17;;;16.60;99.90;;;;;;4954978;28;20026;-83
2023/08/05 00:28:22;;;;;;;3.10;1.13;;;16.60;99.90;;;;;;4951830;28;20022;-82
2023/08/05 00:30:48;;;;;;;1.30;1.00;;;16.50;99.90;;;;;;4956012;28;20046;-82
2023/08/05 00:33:14;;;;;;;1.00;0.90;;;16.50;99.90;;;;;;4960414;28;20095;-83
2023/08/05 00:35:39;;;;;;;1.30;1.08;;;16.50;99.90;;;;;;4930098;28;20046;-82
2023/08/05 00:38:05;;;;;;;1.60;1.20;;;16.50;99.90;;;;;;4977416;28;20034;-83
2023/08/05 00:40:31;;;;;;;1.50;1.02;;;16.40;99.90;;;;;;4952664;28;20269;-83
2023/08/05 00:42:56;;;;;;;1.60;1.07;;;16.40;99.90;;;;;;4961447;28;20034;-83
2023/08/05 00:45:22;;;;;;;1.25;1.10;;;16.40;99.90;;;;;;4936412;28;20141;-81
2023/08/05 00:47:49;;;;;;;1.33;1.00;;;;;;;;;;4957817;28;20345;-82
2023/08/05 00:50:15;;;;;;;1.37;1.17;;;16.30;99.90;;;;;;4933232;28;20026;-81
2023/08/05 00:52:42;;;;;;;1.30;1.02;;;16.30;99.90;;;;;;4948806;28;20053;-83
2023/08/05 00:55:08;;;;;;;1.77;1.30;;;16.20;99.90;;;;;;4960736;28;20026;-81
2023/08/05 00:57:34;;;;;;;1.35;1.00;;;16.20;99.90;;;;;;4955156;28;20038;-83
2023/08/05 01:00:00;;;;;;;1.53;1.23;;;16.20;99.90;;;;;;4961289;28;20581;-82
2023/08/05 01:02:26;;;;;;;1.40;1.17;;;16.20;99.90;;;;;;4956938;28;20623;-82
2023/08/05 01:04:52;;;;;;;1.55;1.20;;;16.20;99.90;;;;;;4942284;28;20046;-83
2023/08/05 01:07:19;;;;;;;1.50;1.20;;;16.10;99.90;;;;;;4911924;28;20053;-82
2023/08/05 01:09:45;;;;;;;1.33;1.08;;;16.10;99.90;;;;;;4971260;28;20018;-82
2023/08/05 01:12:10;;;;;;;1.30;1.03;;;16.10;99.90;;;;;;4951528;28;20811;-82
2023/08/05 01:14:36;;;;;;;1.40;1.10;;;16.10;99.90;;;;;;4959200;28;20044;-82
2023/08/05 01:17:02;;;;;;;2.03;1.10;;;16.10;99.90;;;;;;4979141;28;20944;-83
2023/08/05 01:19:28;;;;;;;1.02;0.90;;;16.10;99.90;;;;;;4982577;28;20225;-82
2023/08/05 01:22:15;;;;;;;1.27;1.10;;;16.10;99.90;;;;;;4968406;28;20033;-83
2023/08/05 01:25:04;;;;;;;1.67;1.20;;;16.10;99.90;;;;;;4963378;28;20031;-82
2023/08/05 01:27:32;;;;;;;1.52;1.10;;;16.10;99.90;;;;;;4953983;28;20022;-81
2023/08/05 01:29:58;;;;;;;1.47;1.00;;;16.10;99.90;;;;;;4949152;28;20107;-83
2023/08/05 01:32:24;;;;;;;1.48;1.02;;;16.10;99.90;;;;;;4963158;28;20521;-81
2023/08/05 01:34:51;;;;;;;1.92;1.30;;;16.00;99.90;;;;;;4950370;28;20362;-81
2023/08/05 01:37:17;;;;;;;1.60;1.25;;;16.00;99.90;;;;;;4931365;28;21279;-82
2023/08/05 01:39:42;;;;;;;2.67;1.23;;;16.00;99.90;;;;;;4958592;28;20323;-81
2023/08/05 01:42:09;;;;;;;2.13;1.35;;;16.00;99.90;;;;;;4956251;28;20669;-83
2023/08/05 01:44:34;;;;;;;1.67;1.25;;;16.00;99.90;;;;;;4932558;28;20238;-81
2023/08/05 01:47:00;;;;;;;2.20;1.27;;;15.90;99.90;;;;;;4941569;28;20062;-83
2023/08/05 01:49:26;;;;;;;2.03;1.30;;;15.90;99.90;;;;;;4974440;28;20308;-82
2023/08/05 01:51:51;;;;;;;1.90;1.40;;;15.90;99.90;;;;;;4953778;28;20074;-83
2023/08/05 01:54:17;;;;;;;1.63;1.20;;;15.80;99.90;;;;;;4926941;28;20190;-81
2023/08/05 01:56:43;;;;;;;1.90;1.30;;;15.80;99.90;;;;;;4958696;28;20403;-81
2023/08/05 01:59:09;;;;;;;2.30;1.38;;;15.60;99.90;;;;;;4948307;28;20034;-84
2023/08/05 02:01:44;;;;;;;2.30;1.50;;;15.70;99.90;;;;;;4950243;28;20025;-82
2023/08/05 02:04:10;;;;;;;1.85;1.30;;;15.70;99.90;;;;;;4945512;28;20054;-84
2023/08/05 02:06:36;;;;;;;1.83;1.30;;;15.70;99.90;;;;;;4937611;28;20081;-81
2023/08/05 02:09:02;;;;;;;2.13;1.40;;;15.70;99.90;;;;;;4935358;28;20038;-84
2023/08/05 02:11:27;;;;;;;2.33;1.40;;;15.70;99.90;;;;;;4970114;28;20144;-82
2023/08/05 02:13:53;;;;;;;2.17;1.60;;;15.70;99.90;;;;;;4952951;28;20022;-83
2023/08/05 02:16:19;;;;;;;2.27;1.40;;;15.60;99.90;;;;;;4943226;28;20356;-82
2023/08/05 02:18:45;;;;;;;2.42;1.33;;;15.60;99.90;;;;;;4962270;28;21017;-81
2023/08/05 02:21:11;;;;;;;1.70;1.30;;;15.60;99.90;;;;;;4960127;28;20015;-82
2023/08/05 02:23:37;;;;;;;1.95;1.15;;;15.60;99.90;;;;;;4950469;28;20030;-82
2023/08/05 02:26:03;;;;;;;1.60;1.20;;;15.60;99.90;;;;;;4944033;28;20553;-83
2023/08/05 02:28:29;;;;;;;2.47;1.30;;;15.60;99.90;;;;;;4940755;28;20216;-81
2023/08/05 02:30:55;;;;;;;1.97;1.20;;;15.50;99.90;;;;;;4960028;28;20108;-83
2023/08/05 02:33:20;;;;;;;1.45;1.17;;;15.50;99.90;;;;;;4946709;28;20643;-81
2023/08/05 02:35:46;;;;;;;2.20;1.23;;;15.50;99.90;;;;;;4963213;28;20446;-81
2023/08/05 02:38:13;;;;;;;2.33;1.23;;;15.50;99.90;;;;;;4939111;28;20415;-83
2023/08/05 02:40:39;;;;;;;1.70;1.30;;;15.50;99.90;;;;;;4960288;28;20057;-81
2023/08/05 02:43:05;;;;;;;2.72;1.23;;;15.50;99.90;;;;;;4984813;28;20073;-84
2023/08/05 02:45:31;;;;;;;2.97;1.40;;;15.50;99.90;;;;;;4939759;28;20037;-82
2023/08/05 02:47:57;;;;;;;3.38;1.42;;;15.50;99.90;;;;;;4948259;28;20454;-84
2023/08/05 02:50:23;;;;;;;2.05;1.40;;;15.40;99.90;;;;;;4959272;28;20418;-82
2023/08/05 02:52:48;;;;;;;2.20;1.47;;;15.40;99.90;;;;;;4962900;28;20030;-83
2023/08/05 02:55:14;;;;;;;2.22;1.63;;;15.40;99.90;;;;;;4907702;28;20718;-81
2023/08/05 02:57:40;;;;;;;2.30;1.50;;;15.40;99.90;;;;;;4979738;28;20042;-81
2023/08/05 03:00:06;;;;;;;1.60;1.27;;;15.40;99.90;;;;;;4940702;28;20489;-84
2023/08/05 03:02:32;;;;;;;2.03;1.50;;;15.40;99.90;;;;;;4956274;28;20503;-82
2023/08/05 03:04:58;;;;;;;1.90;1.23;;;15.90;99.90;;;;;;4979688;28;20113;-84
2023/08/05 03:07:23;;;;;;;2.20;1.50;;;15.40;99.90;;;;;;4958267;28;20100;-82
2023/08/05 03:09:49;;;;;;;2.67;1.40;;;15.40;99.90;;;;;;4949881;28;20519;-83
2023/08/05 03:12:15;;;;;;;2.30;1.53;;;15.40;99.90;;;;;;4942861;28;20164;-82
2023/08/05 03:14:41;;;;;;;2.22;1.40;;;15.40;99.90;;;;;;4967363;28;20070;-81
2023/08/05 03:17:06;;;;;;;3.00;1.70;;;15.40;99.90;;;;;;4930704;28;20576;-84
2023/08/05 03:19:32;;;;;;;2.33;1.50;;;15.40;99.90;;;;;;4981792;28;20265;-82
2023/08/05 03:21:58;;;;;;;2.07;1.50;;;15.40;99.90;;;;;;4960754;28;20042;-84
2023/08/05 03:24:23;;;;;;;2.20;1.30;;;15.40;99.90;;;;;;4960649;28;20073;-82
2023/08/05 03:26:49;;;;;;;1.93;1.40;;;15.40;99.90;;;;;;4972179;28;20065;-83
2023/08/05 03:29:15;;;;;;;1.80;1.40;;;15.40;99.90;;;;;;4922994;28;20617;-81
2023/08/05 03:31:41;;;;;;;2.58;1.40;;;;;;;;;;4964758;28;20026;-82
2023/08/05 03:34:07;;;;;;;1.85;1.25;;;15.40;99.90;;;;;;4953062;28;20121;-84
2023/08/05 03:36:32;;;;;;;3.37;1.73;;;15.40;99.90;;;;;;4963033;28;20556;-83
2023/08/05 03:38:58;;;;;;;2.07;1.40;;;15.30;99.90;;;;;;4963787;28;20109;-83
2023/08/05 03:41:24;;;;;;;2.15;1.60;;;15.30;99.90;;;;;;4951776;28;20242;-81
2023/08/05 03:43:49;;;;;;;2.23;1.47;;;15.30;99.90;;;;;;4944761;28;20366;-83
2023/08/05 03:46:15;;;;;;;2.65;1.75;;;15.30;99.90;;;;;;4976223;28;20049;-82
2023/08/05 03:48:41;;;;;;;2.63;1.60;;;15.30;99.90;;;;;;4938639;28;20549;-82
2023/08/05 03:51:07;;;;;;;2.40;1.40;;;15.30;99.90;;;;;;4972889;28;20019;-84
2023/08/05 03:53:33;;;;;;;2.72;1.70;;;15.30;99.90;;;;;;4968523;28;20010;-85
2023/08/05 03:55:59;;;;;;;3.10;1.60;;;15.30;99.90;;;;;;4957754;28;20026;-83
2023/08/05 03:58:26;;;;;;;2.70;1.67;;;15.30;99.90;;;;;;4931870;28;20088;-82
2023/08/05 04:00:52;;;;;;;2.67;1.48;;;;;;;;;;4959016;28;20072;-82
2023/08/05 04:03:18;;;;;;;3.50;2.08;;;15.00;99.90;;;;;;4941734;28;20050;-84
2023/08/05 04:05:44;;;;;;;3.80;1.87;;;15.40;99.90;;;;;;4952888;28;20109;-83
2023/08/05 04:08:11;;;;;;;3.05;1.77;;;;;;;;;;4946935;28;20096;-83
2023/08/05 04:10:38;;;;;;;2.90;1.75;;;15.40;99.90;;;;;;4954233;28;20026;-83
2023/08/05 04:13:04;;;;;;;3.60;2.00;;;15.20;99.90;;;;;;4926864;28;20053;-84
2023/08/05 04:15:33;;;;;;;3.43;1.87;;;15.40;99.90;;;;;;4959196;28;20128;-83
2023/08/05 04:18:00;;;;;;;2.92;1.73;;;15.40;99.90;;;;;;4940259;28;20496;-85
2023/08/05 04:20:27;;;;;;;3.65;2.10;;;15.40;99.90;;;;;;4935064;28;23511;-83
2023/08/05 04:22:53;;;;;;;3.60;2.10;;;15.40;99.90;;;;;;4942565;28;20101;-85
2023/08/05 04:25:19;;;;;;;3.28;1.83;;;15.40;99.90;;;;;;4958228;28;20125;-84
2023/08/05 04:27:45;;;;;;;2.97;1.80;;;15.50;99.90;;;;;;4952130;28;20076;-82
2023/08/05 04:30:11;;;;;;;2.60;1.80;;;15.40;99.90;;;;;;4912255;28;20263;-83
2023/08/05 04:32:39;;;;;;;2.97;2.05;;;15.50;99.90;;;;;;4951465;28;20026;-84
2023/08/05 04:35:05;;;;;;;4.05;2.42;;;15.40;99.90;;;;;;4953435;28;20029;-85
2023/08/05 04:37:31;;;;;;;2.77;1.83;;;15.40;99.90;;;;;;4964713;28;20042;-82
2023/08/05 04:39:57;;;;;;;3.78;1.80;;;15.40;99.90;;;;;;4942651;28;20056;-85
2023/08/05 04:42:22;;;;;;;3.30;2.10;;;15.40;99.90;;;;;;4941656;28;20126;-83
2023/08/05 04:44:48;;;;;;;4.03;2.17;;;15.40;99.90;;;;;;4938158;28;20026;-85
2023/08/05 04:47:14;;;;;;;3.15;1.90;;;;;;;;;;4949421;28;20508;-84
2023/08/05 04:49:43;;;;;;;3.40;2.00;;;15.40;99.90;;;;;;4950861;28;20037;-83
2023/08/05 04:52:10;;;;;;;4.00;2.10;;;15.40;99.90;;;;;;4962340;28;20312;-84
2023/08/05 04:54:40;;;;;;;2.92;1.75;;;16.70;99.90;;;;;;4964709;28;20749;-83
2023/08/05 04:57:06;;;;;;;3.63;2.05;;;15.40;99.90;;;;;;4939621;28;20078;-84
2023/08/05 04:59:33;;;;;;;3.53;1.83;;;15.40;99.90;;;;;;4946156;28;20026;-82
2023/08/05 05:01:58;;;;;;;3.60;2.15;;;15.50;99.90;;;;;;4926954;28;20396;-84
2023/08/05 05:04:24;;;;;;;3.77;2.10;;;15.50;99.90;;;;;;4930763;28;20050;-85
2023/08/05 05:06:50;;;;;;;3.22;1.92;;;15.50;99.90;;;;;;4977685;28;20050;-83
2023/08/05 05:09:16;;;;;;;3.10;1.97;;;15.60;99.90;;;;;;4935677;28;20429;-85
2023/08/05 05:11:42;;;;;;;3.40;1.75;;;15.60;99.90;;;;;;4962535;28;20606;-83
2023/08/05 05:14:07;;;;;;;3.50;1.67;;;15.60;99.90;;;;;;4966165;28;20026;-82
2023/08/05 05:16:33;;;;;;;4.05;2.08;;;15.60;99.90;;;;;;4949075;28;20252;-83
2023/08/05 05:18:59;;;;;;;3.40;2.10;;;15.70;99.90;;;;;;4961098;28;20065;-83
2023/08/05 05:21:24;;;;;;;3.45;2.13;;;15.70;99.90;;;;;;4956368;28;20480;-85
2023/08/05 05:23:50;;;;;;;3.30;1.77;;;15.80;99.90;;;;;;4939582;28;20042;-82
2023/08/05 05:26:16;;;;;;;3.45;1.88;;;15.80;99.90;;;;;;4947778;28;20385;-85
2023/08/05 05:28:41;;;;;;;2.97;1.90;;;15.90;99.90;;;;;;4950940;28;20022;-84
2023/08/05 05:31:07;;;;;;;3.33;2.17;;;15.90;99.90;;;;;;4921881;28;20688;-82
2023/08/05 05:33:33;;;;;;;3.60;2.00;;;15.90;99.90;;;;;;4943691;28;20630;-83
2023/08/05 05:35:59;;;;;;;3.33;1.90;;;16.00;99.90;;;;;;4960665;28;20027;-83
2023/08/05 05:38:24;;;;;;;3.15;2.03;;;16.00;99.90;;;;;;4941856;28;20045;-84
2023/08/05 05:40:54;;;;;;;3.03;1.97;;;16.10;99.90;;;;;;4952342;28;20117;-84
2023/08/05 05:43:19;;;;;;;3.30;2.30;;;16.10;99.90;;;;;;4946300;28;20527;-85
2023/08/05 05:45:46;;;;;;;3.83;1.90;;;16.20;99.90;;;;;;4967910;28;20026;-83
2023/08/05 05:48:13;;;;;;;3.33;2.00;;;16.20;99.90;;;;;;4938653;28;20320;-84
2023/08/05 05:50:41;;;;;;;3.20;1.90;;;16.30;99.90;;;;;;4942084;28;20137;-84
2023/08/05 05:53:08;;;;;;;3.47;2.00;;;16.30;99.90;;;;;;4955729;28;20034;-82
2023/08/05 05:55:34;;;;;;;3.15;1.88;;;16.30;99.90;;;;;;4952311;28;20034;-82
2023/08/05 05:58:00;;;;;;;3.30;1.92;;;16.40;99.90;;;;;;4935523;28;20038;-83
2023/08/05 06:00:26;;;;;;;2.97;2.00;;;16.40;99.90;;;;;;4952294;28;20061;-84
2023/08/05 06:02:51;;;;;;;2.90;1.85;;;16.50;99.90;;;;;;4960409;28;20027;-82
2023/08/05 06:05:17;;;;;;;2.50;1.80;;;16.50;99.90;;;;;;4974868;28;20101;-84
2023/08/05 06:07:44;;;;;;;3.08;1.77;;;16.60;99.90;;;;;;4938232;28;20038;-83
2023/08/05 06:10:09;;;;;;;2.70;1.70;;;16.60;99.90;;;;;;4982423;28;20488;-84
2023/08/05 06:12:37;;;;;;;2.40;1.60;;;17.20;99.90;;;;;;4965906;28;20161;-83
2023/08/05 06:15:06;;;;;;;2.88;2.00;;;16.70;99.90;;;;;;4981795;28;20174;-82
2023/08/05 06:17:32;;;;;;;3.22;1.90;;;16.80;99.90;;;;;;4961502;28;20038;-82
2023/08/05 06:19:57;;;;;;;3.05;1.83;;;16.20;99.90;;;;;;4931638;28;20542;-83
2023/08/05 06:22:24;;;;;;;3.10;2.10;;;16.80;99.90;;;;;;4957111;28;20038;-84
2023/08/05 06:24:51;;;;;;;2.95;2.05;;;16.90;99.90;;;;;;4953080;28;20037;-83
2023/08/05 06:27:19;;;;;;;2.90;1.92;;;16.70;99.90;;;;;;4965569;28;20084;-84
2023/08/05 06:29:45;;;;;;;2.87;1.90;;;17.00;99.90;;;;;;4953238;28;20030;-83
2023/08/05 06:32:12;;;;;;;3.00;1.70;;;17.00;99.90;;;;;;4981805;28;20026;-84
2023/08/05 06:34:38;;;;;;;3.30;1.85;;;15.40;99.90;;;;;;4929206;28;20029;-82
2023/08/05 06:37:04;;;;;;;3.23;2.03;;;17.10;99.90;;;;;;4973873;28;20034;-82
2023/08/05 06:39:33;;;;;;;3.42;1.95;;;;;;;;;;4966348;28;20231;-83
2023/08/05 06:41:59;;;;;;;3.63;1.88;;;17.30;99.90;;;;;;4954081;28;20030;-82
2023/08/05 06:44:25;;;;;;;3.25;2.10;;;17.30;99.90;;;;;;4924767;28;21723;-84
2023/08/05 06:46:51;;;;;;;3.13;2.13;;;17.40;99.90;;;;;;4944787;28;20369;-82
2023/08/05 06:49:17;;;;;;;3.17;2.00;;;17.40;99.90;;;;;;4956505;28;20468;-82
2023/08/05 06:51:43;;;;;;;3.15;2.20;;;17.40;99.90;;;;;;4938156;28;20849;-83
2023/08/05 06:54:10;;;;;;;3.00;2.00;;;17.50;99.90;;;;;;4963668;28;20765;-82
2023/08/05 06:56:37;;;;;;;3.42;2.15;;;17.60;99.90;;;;;;4952034;28;20120;-83
2023/08/05 06:59:03;;;;;;;3.10;1.90;;;17.60;99.90;;;;;;4936167;28;20626;-83
2023/08/05 07:01:30;;;;;;;3.67;2.03;;;17.60;99.90;;;;;;4936046;28;20350;-83
2023/08/05 07:03:56;;;;;;;2.10;1.48;;;17.70;99.90;;;;;;4953047;28;20057;-82
2023/08/05 07:06:22;;;;;;;3.30;1.75;;;17.60;99.90;;;;;;4934132;28;20034;-82
2023/08/05 07:08:47;;;;;;;3.53;1.90;;;17.70;99.90;;;;;;4942179;28;20018;-83
2023/08/05 07:11:13;;;;;;;3.55;1.80;;;17.70;99.90;;;;;;4960172;28;20017;-83
2023/08/05 07:13:39;;;;;;;2.50;2.00;;;17.70;99.90;;;;;;4940663;28;20168;-84
2023/08/05 07:16:05;;;;;;;4.53;2.20;;;17.80;99.90;;;;;;4940014;28;20104;-81
2023/08/05 07:18:31;;;;;;;3.55;1.92;;;17.90;99.90;;;;;;4942661;28;20117;-83
2023/08/05 07:20:57;;;;;;;4.43;2.47;;;18.00;99.90;;;;;;4961489;28;20034;-82
2023/08/05 07:23:24;;;;;;;2.90;2.10;;;18.10;99.90;;;;;;4930185;28;20030;-83
2023/08/05 07:25:50;;;;;;;4.30;2.42;;;18.30;99.90;;;;;;4956933;28;20134;-80
2023/08/05 07:28:16;;;;;;;3.57;2.30;;;18.40;99.90;;;;;;4963134;28;20034;-83
2023/08/05 07:30:42;;;;;;;3.63;2.40;;;18.60;99.90;;;;;;4920175;28;20026;-83
2023/08/05 07:33:09;;;;;;;2.83;1.95;;;18.70;99.90;;;;;;4945155;28;20073;-85
2023/08/05 07:35:36;;;;;;;4.07;2.00;;;18.80;99.90;;;;;;4941217;28;20510;-83
2023/08/05 07:38:04;;;;;;;5.07;2.45;;;18.90;99.90;;;;;;4941984;28;20117;-83
2023/08/05 07:40:31;;;;;;;4.00;2.22;;;19.10;99.90;;;;;;4954717;28;20030;-84
2023/08/05 07:43:00;;;;;;;3.58;2.40;;;19.20;99.90;;;;;;4961457;28;20113;-81
2023/08/05 07:45:26;;;;;;;3.72;2.17;;;19.30;99.90;;;;;;4940122;28;20087;-85
2023/08/05 07:47:55;;;;;;;3.47;2.33;;;19.30;99.90;;;;;;4953878;28;20320;-84
2023/08/05 07:50:22;;;;;;;3.75;2.25;;;19.40;99.90;;;;;;4957832;28;20034;-84
2023/08/05 07:52:53;;;;;;;5.07;2.75;;;19.40;99.90;;;;;;4941115;28;20177;-83
2023/08/05 07:55:19;;;;;;;4.18;2.72;;;19.50;99.90;;;;;;4925795;28;20041;-84
2023/08/05 07:57:46;;;;;;;3.63;2.60;;;19.50;99.90;;;;;;4971405;28;20030;-81
2023/08/05 08:00:13;;;;;;;3.90;2.50;;;19.50;99.90;;;;;;4964415;28;20114;-84
2023/08/05 08:02:44;;;;;;;4.05;2.58;;;19.50;99.90;;;;;;4928415;28;20126;-83
2023/08/05 08:05:13;;;;;;;3.20;2.30;;;;;;;;;;4949002;28;20365;-83
2023/08/05 08:07:45;;;;;;;3.70;2.50;;;19.50;99.90;;;;;;4948543;28;20487;-84
2023/08/05 08:10:11;;;;;;;3.95;2.75;;;19.60;99.90;;;;;;4923070;28;20165;-83
2023/08/05 08:12:37;;;;;;;4.75;2.78;;;19.70;99.90;;;;;;4951001;28;20615;-82
2023/08/05 08:15:03;;;;;;;4.77;2.83;;;19.90;99.90;;;;;;4948122;28;20039;-82
2023/08/05 08:17:29;;;;;;;6.07;2.77;;;20.00;99.90;;;;;;4940559;28;20771;-85
2023/08/05 08:19:55;;;;;;;5.70;3.22;;;20.30;99.90;;;;;;4944049;28;20030;-83
2023/08/05 08:22:21;;;;;;;4.38;2.83;;;20.50;99.90;;;;;;4953292;28;20034;-84
2023/08/05 08:24:46;;;;;;;4.27;2.90;;;20.70;99.90;;;;;;4925029;28;20910;-84
2023/08/05 08:27:12;;;;;;;4.70;2.67;;;21.00;99.90;;;;;;4983001;28;20464;-83
2023/08/05 08:29:38;;;;;;;4.67;3.00;;;21.20;99.90;;;;;;4932200;28;20245;-83
2023/08/05 08:32:04;;;;;;;3.88;2.75;;;21.30;99.90;;;;;;4937288;28;20018;-84
2023/08/05 08:34:30;;;;;;;3.50;2.67;;;21.40;99.90;;;;;;4940303;28;20117;-84
2023/08/05 08:36:56;;;;;;;3.92;2.60;;;21.50;99.90;;;;;;4952165;28;20015;-83
2023/08/05 08:39:22;;;;;;;4.53;2.60;;;21.50;99.90;;;;;;4936782;28;20092;-83
2023/08/05 08:41:49;;;;;;;4.65;3.03;;;21.40;99.90;;;;;;4945375;28;20038;-83
2023/08/05 08:44:16;;;;;;;3.22;2.50;;;21.30;99.90;;;;;;4971347;28;20010;-82
2023/08/05 08:46:44;;;;;;;3.05;2.30;;;21.20;99.90;;;;;;4975920;28;20112;-82
2023/08/05 08:49:13;;;;;;;3.70;2.40;;;21.10;99.90;;;;;;4966680;28;20045;-82
2023/08/05 08:51:40;;;;;;;3.40;2.50;;;21.00;99.90;;;;;;4962470;28;20022;-83
2023/08/05 08:54:07;;;;;;;3.83;2.70;;;21.00;99.90;;;;;;4953578;28;20453;-83
2023/08/05 08:56:33;;;;;;;3.50;2.55;;;21.00;99.90;;;;;;4957686;28;20030;-82
2023/08/05 08:59:00;;;;;;;3.60;2.65;;;21.00;99.90;;;;;;4940263;28;20354;-79
2023/08/05 09:01:27;;;;;;;4.07;2.73;;;21.10;99.90;;;;;;4962934;28;20527;-85
2023/08/05 09:03:53;;;;;;;3.20;2.40;;;21.10;99.90;;;;;;4946398;28;20640;-81
2023/08/05 09:06:26;;;;;;;3.80;2.47;;;21.20;99.90;;;;;;4941201;28;20265;-84
2023/08/05 09:08:51;;;;;;;2.90;2.30;;;21.30;99.90;;;;;;4954787;28;20141;-83
2023/08/05 09:11:17;;;;;;;4.07;2.33;;;21.40;99.90;;;;;;4944521;28;20033;-84
2023/08/05 09:13:43;;;;;;;3.30;2.40;;;21.50;99.90;;;;;;4923927;28;20049;-83
2023/08/05 09:16:13;;;;;;;3.45;2.30;;;21.70;99.90;;;;;;4963814;28;20096;-83
2023/08/05 09:18:57;;;;;;;2.83;2.13;;;21.70;99.90;;;;;;4957555;28;20065;-82
2023/08/05 09:21:28;;;;;;;2.90;1.85;;;21.80;99.90;;;;;;4922828;28;20018;-85
2023/08/05 09:23:55;;;;;;;3.08;1.90;;;21.80;99.90;;;;;;4976245;28;20019;-82
2023/08/05 09:26:31;;;;;;;3.08;1.80;;;21.90;99.90;;;;;;4966286;28;20034;-83
2023/08/05 09:28:59;;;;;;;2.60;1.85;;;22.00;99.90;;;;;;4940886;28;20038;-82
2023/08/05 09:31:25;;;;;;;2.20;1.70;;;22.10;99.90;;;;;;4964739;28;20026;-82
2023/08/05 09:33:52;;;;;;;3.20;1.98;;;22.30;99.90;;;;;;4966206;28;20256;-82
2023/08/05 09:36:22;;;;;;;2.00;1.80;;;22.50;99.90;;;;;;4927248;28;20021;-83
2023/08/05 09:39:06;;;;;;;2.00;1.50;;;22.60;99.90;;;;;;4950261;28;20019;-82
2023/08/05 09:41:35;;;;;;;2.50;1.50;;;22.80;99.90;;;;;;4939432;28;20030;-82
2023/08/05 09:44:01;;;;;;;1.73;1.30;;;23.00;99.90;;;;;;4927038;28;20081;-85
2023/08/05 09:46:40;;;;;;;2.78;1.40;;;23.10;99.90;;;;;;4980017;28;20089;-84
2023/08/05 09:49:08;;;;;;;1.70;1.42;;;23.10;99.90;;;;;;4964844;28;20089;-84
2023/08/05 09:51:35;;;;;;;1.45;1.35;;;23.10;99.90;;;;;;4933972;28;20800;-84
2023/08/05 09:54:05;;;;;;;2.85;1.50;;;23.10;99.90;;;;;;4952913;28;20019;-83
2023/08/05 09:56:31;;;;;;;2.10;1.33;;;23.00;99.90;;;;;;4968555;28;20157;-85
2023/08/05 09:58:58;;;;;;;2.28;1.40;;;22.90;99.90;;;;;;4934991;28;20054;-83
2023/08/05 10:01:23;;;;;;;2.10;1.20;;;22.80;99.90;;;;;;4960585;28;20236;-83
2023/08/05 10:03:50;;;;;;;2.28;1.40;;;22.60;99.90;;;;;;4963527;28;20366;-83
2023/08/05 10:06:16;;;;;;;1.87;1.23;;;22.40;99.90;;;;;;4951168;28;20065;-82
2023/08/05 10:08:43;;;;;;;2.25;1.38;;;22.20;99.90;;;;;;4955913;28;20034;-83
2023/08/05 10:11:09;;;;;;;2.10;1.25;;;22.10;99.90;;;;;;4949452;28;20702;-84
2023/08/05 10:13:38;;;;;;;2.53;1.40;;;22.70;99.90;;;;;;4932419;28;22450;-83
2023/08/05 10:16:06;;;;;;;2.28;1.50;;;21.70;99.90;;;;;;4949959;28;20029;-83
2023/08/05 10:18:34;;;;;;;1.73;1.30;;;21.70;99.90;;;;;;4961163;28;20212;-81
2023/08/05 10:21:05;;;;;;;2.95;1.55;;;21.60;99.90;;;;;;4963194;28;20034;-83
2023/08/05 10:23:37;;;;;;;1.40;1.30;;;21.90;99.90;;;;;;4930630;28;20476;-84
2023/08/05 10:26:05;;;;;;;2.10;1.40;;;21.50;99.90;;;;;;4967359;28;20459;-84
2023/08/05 10:28:33;;;;;;;1.85;1.50;;;21.50;99.90;;;;;;4947227;28;20022;-82
2023/08/05 10:31:03;;;;;;;2.43;1.40;;;21.50;99.90;;;;;;4958107;28;20533;-83
2023/08/05 10:33:29;;;;;;;2.30;1.35;;;21.40;99.90;;;;;;4976315;28;20018;-83
2023/08/05 10:36:03;;;;;;;2.28;1.60;;;21.40;99.90;;;;;;4967940;28;20101;-83
2023/08/05 10:38:41;;;;;;;2.45;1.75;;;21.40;99.90;;;;;;4952259;28;20254;-82
2023/08/05 10:41:10;;;;;;;2.17;1.60;;;21.40;99.90;;;;;;4942427;28;20113;-83
2023/08/05 10:43:38;;;;;;;2.07;1.70;;;21.40;99.90;;;;;;4946652;28;20321;-82
2023/08/05 10:46:06;;;;;;;1.88;1.65;;;21.30;99.90;;;;;;4947996;28;20117;-82
2023/08/05 10:48:48;;;;;;;3.00;1.85;;;21.30;99.90;;;;;;4960849;28;20234;-82
2023/08/05 10:51:20;;;;;;;2.35;1.75;;;21.20;99.90;;;;;;4978673;28;20033;-82
2023/08/05 10:53:54;;;;;;;2.95;2.00;;;21.20;99.90;;;;;;4981754;28;20204;-81
2023/08/05 10:56:34;;;;;;;3.43;2.10;;;21.20;99.90;;;;;;4938875;28;20035;-83
2023/08/05 10:59:02;;;;;;;2.65;1.80;;;21.20;99.90;;;;;;4959801;28;20100;-83
2023/08/05 11:01:56;;;;;;;2.53;1.70;;;21.20;99.90;;;;;;4941558;28;20018;-83
2023/08/05 11:04:30;;;;;;;2.05;1.52;;;21.20;99.90;;;;;;4960795;28;20436;-82
2023/08/05 11:06:59;;;;;;;2.80;1.73;;;21.20;99.90;;;;;;4983285;28;20307;-82
2023/08/05 11:09:26;;;;;;;3.00;1.60;;;21.10;99.90;;;;;;4941397;28;20032;-83
2023/08/05 11:11:52;;;;;;;2.47;1.50;;;21.10;99.90;;;;;;4953503;28;20077;-82
2023/08/05 11:14:19;;;;;;;3.33;1.63;;;21.00;99.90;;;;;;4968161;28;20030;-82
2023/08/05 11:16:48;;;;;;;2.35;1.65;;;21.00;99.90;;;;;;4940102;28;20045;-83
2023/08/05 11:19:17;;;;;;;2.10;1.60;;;21.00;99.90;;;;;;4976892;28;20053;-84
2023/08/05 11:21:44;;;;;;;2.43;1.70;;;20.90;99.90;;;;;;4960940;28;20413;-83
2023/08/05 11:24:20;;;;;;;2.75;1.60;;;20.80;99.90;;;;;;4960853;28;20118;-83
2023/08/05 11:26:49;;;;;;;1.85;1.50;;;20.80;99.90;;;;;;4940621;28;20076;-83
2023/08/05 11:29:15;;;;;;;2.10;1.60;;;20.70;99.90;;;;;;4943800;28;20539;-82
2023/08/05 11:31:51;;;;;;;2.27;1.50;;;20.60;99.90;;;;;;4940615;28;21468;-82
2023/08/05 11:34:21;;;;;;;1.80;1.53;;;20.50;99.90;;;;;;4962156;28;20278;-83
2023/08/05 11:36:55;;;;;;;2.97;1.52;;;20.40;99.90;;;;;;4965265;28;20041;-83
2023/08/05 11:39:25;;;;;;;1.75;1.40;;;20.30;99.90;;;;;;4938326;28;20229;-82
2023/08/05 11:41:51;;;;;;;2.97;1.73;;;20.30;99.90;;;;;;4930948;28;20497;-82
2023/08/05 11:44:17;;;;;;;1.50;1.40;;;20.20;99.90;;;;;;4947112;28;20157;-82
2023/08/05 11:46:43;;;;;;;1.97;1.37;;;20.10;99.90;;;;;;4924581;28;20050;-84
2023/08/05 11:49:11;;;;;;;1.85;1.35;;;20.00;99.90;;;;;;4956294;28;20512;-81
2023/08/05 11:51:50;;;;;;;2.45;1.50;;;19.80;99.90;;;;;;4960553;28;20041;-83
2023/08/05 11:54:31;;;;;;;2.57;1.27;;;19.60;99.90;;;;;;4968807;28;20015;-82
2023/08/05 11:56:58;;;;;;;2.10;1.38;;;19.50;99.90;;;;;;4952306;28;20030;-83
2023/08/05 12:00:02;;;;;;;1.80;1.10;;;19.30;99.90;;;;;;4963236;28;20562;-82
2023/08/05 12:02:36;;;;;;;2.50;1.20;;;19.10;99.90;;;;;;4919003;28;20042;-85
2023/08/05 12:05:03;;;;;;;2.72;1.20;;;19.00;99.90;;;;;;4933686;28;20520;-82
2023/08/05 12:07:29;;;;;;;2.37;1.37;;;18.90;99.90;;;;;;4943399;28;20516;-83
2023/08/05 12:10:10;;;;;;;2.15;1.45;;;18.80;99.90;;;;;;4971939;28;20026;-84
2023/08/05 12:12:37;;;;;;;2.10;1.40;;;18.80;99.90;;;;;;4946937;28;20034;-84
2023/08/05 12:15:12;;;;;;;2.35;1.30;;;18.70;99.90;;;;;;4960613;28;20196;-84
2023/08/05 12:17:38;;;;;;;2.00;1.42;;;18.70;99.90;;;;;;4948580;28;20049;-85
2023/08/05 12:20:17;;;;;;;1.90;1.30;;;18.60;99.90;;;;;;4922699;28;20213;-84
2023/08/05 12:22:43;;;;;;;2.25;1.25;;;18.60;99.90;;;;;;4939039;28;20113;-82
2023/08/05 12:25:08;;;;;;;1.65;1.30;;;18.60;99.90;;;;;;4976928;28;20038;-85
2023/08/05 12:27:34;;;;;;;1.70;1.30;;;18.60;99.90;;;;;;4933814;28;20058;-85
2023/08/05 12:30:00;;;;;;;3.13;1.50;;;18.60;99.90;;;;;;4949524;28;20050;-85
2023/08/05 12:32:26;;;;;;;2.22;1.50;;;18.60;99.90;;;;;;4937352;28;21900;-86
2023/08/05 12:34:52;;;;;;;2.03;1.33;;;18.60;99.90;;;;;;4932991;28;20593;-85
2023/08/05 12:37:18;;;;;;;2.28;1.40;;;18.70;99.90;;;;;;4951699;28;20397;-85
2023/08/05 12:39:44;;;;;;;2.38;1.50;;;18.70;99.90;;;;;;4957083;28;20041;-84
2023/08/05 12:42:09;;;;;;;2.30;1.50;;;18.50;99.90;;;;;;4943281;28;20029;-86
2023/08/05 12:44:35;;;;;;;2.22;1.52;;;18.80;99.90;;;;;;4956800;28;20034;-84
2023/08/05 12:47:01;;;;;;;2.57;1.60;;;18.80;99.90;;;;;;4949020;28;20334;-85
2023/08/05 12:49:26;;;;;;;3.45;1.50;;;18.90;99.90;;;;;;4954536;28;20205;-84